Nearby METAR Reports

 

KMLP - Mullan Pass, Idaho, USA
Distance from station: NE 41mi, 66km
Updated: Sat, 27-Nov-2021 5:37pm PST
Fog, Overcast
Fog, Overcast
 Wind from varies
Wind: varies 3 mph , 6 km/h
Temperature: 34°F , 1°C
Dew Point: 32°F , 0°C
Humidity: 93%
Barometer: 30.12 inHg , 1020 hPa
Summary: Fog
Clouds: Overcast
Visibility: 1/2 mile , 0.8 km
Cloud details: Overcast 100 ft
2021/11/28 01:37 KMLP 280137Z AUTO VRB03KT 1/2SM UP FG VV001 01/00 A3012 RMK AO2 UPB00SNB09E23 P0000 T00060000
KPUW - Pullman/Moscow, Washington, USA
Distance from station: SW 42mi, 68km
Updated: Sat, 27-Nov-2021 4:53pm PST
Light rain, Overcast
Light rain, Overcast
 Wind from ESE
Wind: ESE 13 mph , 20 km/h
Temperature: 45°F , 7°C
Wind Chill: 39°F , 4°C
Dew Point: 37°F , 3°C
Humidity: 76%
Barometer: 30.14 inHg , 1020.7 hPa
Summary: Light Rain
Clouds: Overcast
Visibility: 10 miles , 16 km
Cloud details: Mostly Cloudy 5500 ft
Overcast 7000 ft
2021/11/28 00:53 KPUW 280053Z AUTO 11011KT 10SM -RA BKN055 OVC070 07/03 A3014 RMK AO2 RAE19B41 SLP218 P0000 T00670033
 
KCOE - Coeur D'alene, Idaho, USA
Distance from station: NNW 49mi, 79km
Updated: Sat, 27-Nov-2021 4:56pm PST
Light rain, Overcast
Light rain, Overcast
 Wind from S
Wind: S 6 mph , 9 km/h
Temperature: 45°F , 7°C
Wind Chill: 42°F , 6°C
Dew Point: 43°F , 6°C
Humidity: 93%
Barometer: 30.12 inHg , 1020 hPa
Summary: Light Rain
Clouds: Overcast
Visibility: 10 miles , 16 km
Cloud details: Few Clouds 3800 ft
Overcast 5000 ft
2021/11/28 00:56 KCOE 280056Z AUTO 17005KT 10SM -RA FEW038 OVC050 07/06 A3012 RMK AO2 SLP227 P0003 T00720056
KSFF - Spokane/Felts, Washington, USA
Distance from station: NW 59mi, 94km
Updated: Sat, 27-Nov-2021 4:53pm PST
Light rain, Overcast
Light rain, Overcast
 Wind from NNE
Wind: NNE 3 mph , 6 km/h
Temperature: 46°F , 8°C
Dew Point: 45°F , 7°C
Humidity: 93%
Barometer: 30.10 inHg , 1019.3 hPa
Summary: Light Rain
Clouds: Overcast
Visibility: 7 miles , 11 km
Cloud details: Overcast 5000 ft
2021/11/28 00:53 KSFF 280053Z 02003KT 7SM -RA OVC050 08/07 A3010 RMK AO2 RAE15B41 SLP201 P0001 T00780067
 
KLWS - Lewiston, Idaho, USA
Distance from station: SSW 59mi, 96km
Updated: Sat, 27-Nov-2021 4:56pm PST
Light rain, Overcast
Light rain, Overcast
 Wind from SE
Wind: SE 9 mph , 15 km/h
Temperature: 52°F , 11°C
Dew Point: 36°F , 2°C
Humidity: 54%
Barometer: 30.14 inHg , 1020.7 hPa
Summary: Light Rain
Clouds: Overcast
Visibility: 10 miles , 16 km
Cloud details: Few Clouds 7000 ft
Overcast 8500 ft
2021/11/28 00:56 KLWS 280056Z 13008KT 10SM -RA FEW070 OVC085 11/02 A3014 RMK AO2 RAB53 SLP211 P0000 T01060017
KGEG - Spokane/Metro, Washington, USA
Distance from station: WNW 64mi, 103km
Updated: Sat, 27-Nov-2021 4:53pm PST
Light rain, Overcast
Light rain, Overcast
 Wind from SE
Wind: SE 6 mph , 9 km/h
Temperature: 45°F , 7°C
Wind Chill: 42°F , 6°C
Dew Point: 43°F , 6°C
Humidity: 93%
Barometer: 30.09 inHg , 1019 hPa
Summary: Light Rain
Clouds: Overcast
Visibility: 8 miles , 13 km
Cloud details: Partly Cloudy 3900 ft
Overcast 5000 ft
2021/11/28 00:53 KGEG 280053Z 14005KT 8SM -RA SCT039 OVC050 07/06 A3009 RMK AO2 SLP200 P0001 T00720056
 
KSKA - Fairchild Afb, Washington, USA
Distance from station: WNW 68mi, 110km
Updated: Sat, 27-Nov-2021 4:57pm PST
Light rain, Overcast
Light rain, Overcast
 Wind from ESE
Wind: ESE 9 mph , 15 km/h
Temperature: 45°F , 7°C
Wind Chill: 40°F , 4°C
Dew Point: 45°F , 7°C
Humidity: 100%
Barometer: 30.07 inHg , 1018.3 hPa
Summary: Light Rain
Clouds: Overcast
Visibility: 10 miles , 16 km
Cloud details: Mostly Cloudy 3800 ft
Overcast 5000 ft
2021/11/28 00:57 KSKA 280057Z 11008KT 10SM -RA BKN038 OVC050 07/07 A3007 RMK AO2A RAB08 SLP196 P0002 T00670066 $